KGCN/GCN METAR and TAF weather

Enter ICAO airport designator
Station Type Date Time Source
KGCN METAR 2019/06/19 02:54 UTC NOAA

KGCN 190254Z AUTO 00000KT 10SM FEW110 15/04 A3020 RMK AO2 SLP134 T01500044 53006


Station Type Date Time Source
KGCN Decoded METAR 2019/06/19 02:54 UTC NOAA

GRAND CANYON NATL PARK AIRPORT , AZ, United States (KGCN) 35-57N 112-09W 2016M
Jun 18, 2019 - 10:54 PM EDT / 2019.06.19 0254 UTC
Wind: Calm:0
Visibility: 10 mile(s):0
Sky conditions: mostly clear
Temperature: 59.0 F (15.0 C)
Dew Point: 39.9 F (4.4 C)
Relative Humidity: 49%
Pressure (altimeter): 30.2 in. Hg (1022 hPa)
Pressure tendency: 0.02 inches (0.6 hPa) higher than three hours ago
ob: KGCN 190254Z AUTO 00000KT 10SM FEW110 15/04 A3020 RMK AO2 SLP134 T01500044 53006
cycle: 3

Station Type Date Time Source
KGCN TAF 2019/06/19 01:04 UTC NOAA

TAF
AMD KGCN 190102Z 1901/1924 27008KT P6SM SCT100
FM190200 VRB03KT P6SM FEW200
FM191800 24010G18KT P6SM FEW110

Example: see airport list